Time;durP1;ratioP1;P1;durP2;ratioP2;P2;SDS_P1;SDS_P2;PMS_P1;PMS_P2;Temp;Humidity;BMP_temperature;BMP_pressure;BME280_temperature;BME280_humidity;BME280_pressure;Samples;Min_cycle;Max_cycle;Signal;HPM_P1;HPM_P2
2022/02/02 00:02:05;;;;;;;26.00;10.70;;;;;1.30;96581.60;;;;111019;1247;41133;-59
2022/02/02 00:04:42;;;;;;;25.70;10.10;;;;;1.30;96588.00;;;;110790;1250;41165;-60
2022/02/02 00:07:29;;;;;;;22.20;9.50;;;;;1.30;96594.60;;;;110818;1249;41938;-64
2022/02/02 00:10:10;;;;;;;26.80;9.00;;;;;1.30;96588.80;;;;110938;1249;41762;-59
2022/02/02 00:12:48;;;;;;;25.10;10.00;;;;;1.30;96579.40;;;;110932;1249;41645;-66
2022/02/02 00:18:09;;;;;;;25.00;10.00;;;;;1.38;96574.20;;;;110959;1249;41620;-60
2022/02/02 00:23:35;;;;;;;28.10;10.20;;;;;1.40;96584.40;;;;110672;1250;41909;-62
2022/02/02 00:26:10;;;;;;;33.80;14.30;;;;;1.40;96586.80;;;;110968;1249;41171;-62
2022/02/02 00:28:44;;;;;;;35.10;16.30;;;;;1.36;96578.80;;;;111044;1247;42391;-62
2022/02/02 00:31:21;;;;;;;39.40;16.00;;;;;1.36;96578.60;;;;110997;1249;41185;-63
2022/02/02 00:33:57;;;;;;;36.40;14.90;;;;;1.38;96583.80;;;;111027;1248;41149;-64
2022/02/02 00:36:34;;;;;;;34.80;15.30;;;;;1.36;96582.80;;;;110833;1249;41163;-60
2022/02/02 00:39:07;;;;;;;31.80;13.10;;;;;1.40;96575.40;;;;111023;1247;42215;-63
2022/02/02 00:41:40;;;;;;;31.40;13.30;;;;;1.30;96575.00;;;;110997;1247;41588;-58
2022/02/02 00:44:21;;;;;;;32.20;12.30;;;;;1.30;96570.00;;;;111064;1247;41541;-59
2022/02/02 00:46:52;;;;;;;32.80;11.70;;;;;1.30;96571.80;;;;110844;1249;41132;-64
2022/02/02 00:49:21;;;;;;;30.00;12.00;;;;;1.30;96576.00;;;;111025;1246;41161;-62
2022/02/02 00:51:56;;;;;;;28.20;11.50;;;;;1.30;96566.40;;;;111038;1246;42430;-61
2022/02/02 00:54:28;;;;;;;28.80;12.50;;;;;1.30;96572.80;;;;111087;1247;41710;-63
2022/02/02 00:56:57;;;;;;;30.00;12.40;;;;;1.30;96568.80;;;;110831;1249;41429;-60
2022/02/02 00:59:27;;;;;;;29.90;13.20;;;;;1.32;96562.00;;;;111090;1246;41155;-63
2022/02/02 01:01:56;;;;;;;31.00;13.40;;;;;1.38;96561.80;;;;111004;1247;41339;-63
2022/02/02 01:04:26;;;;;;;35.60;12.80;;;;;1.40;96562.20;;;;111053;1247;41254;-62
2022/02/02 01:09:44;;;;;;;34.30;11.40;;;;;1.40;96551.80;;;;111119;1246;41673;-60
2022/02/02 01:28:33;;;;;;;26.70;10.40;;;;;1.50;96544.20;;;;111087;1247;41164;-60
2022/02/02 01:31:03;;;;;;;31.20;11.20;;;;;1.50;96538.80;;;;110943;1248;41132;-62
2022/02/02 01:33:33;;;;;;;32.90;13.40;;;;;1.50;96532.00;;;;111125;1246;41946;-61
2022/02/02 01:36:05;;;;;;;31.90;13.20;;;;;1.50;96520.20;;;;111148;1247;41144;-63
2022/02/02 01:38:36;;;;;;;31.40;13.30;;;;;1.50;96523.20;;;;111065;1247;41259;-64
2022/02/02 01:41:11;;;;;;;34.80;13.70;;;;;1.42;96524.00;;;;111072;1246;41155;-63
2022/02/02 01:43:49;;;;;;;32.50;13.40;;;;;1.40;96516.20;;;;110973;1248;41140;-60
2022/02/02 01:46:21;;;;;;;36.70;14.70;;;;;1.40;96520.40;;;;111110;1247;41243;-62
2022/02/02 01:49:01;;;;;;;38.50;14.70;;;;;1.40;96518.80;;;;110895;1249;41258;-63
2022/02/02 01:54:19;;;;;;;33.80;16.60;;;;;1.40;96508.60;;;;111006;1246;41222;-60
2022/02/02 01:56:49;;;;;;;41.10;16.20;;;;;1.40;96509.00;;;;110791;1249;41622;-60
2022/02/02 01:59:39;;;;;;;42.70;16.30;;;;;1.40;96500.80;;;;110936;1248;41297;-62
2022/02/02 02:02:09;;;;;;;41.30;16.40;;;;;1.40;96501.00;;;;111103;1248;41173;-62
2022/02/02 02:04:39;;;;;;;36.50;16.30;;;;;1.40;96495.20;;;;111058;1247;41155;-59
2022/02/02 02:07:09;;;;;;;41.40;17.50;;;;;1.40;96493.80;;;;110993;1247;42535;-62
2022/02/02 02:09:39;;;;;;;36.60;16.50;;;;;1.42;96489.40;;;;111035;1247;41605;-63
2022/02/02 02:12:11;;;;;;;48.80;17.10;;;;;1.40;96490.80;;;;110883;1249;41298;-59
2022/02/02 02:17:13;;;;;;;39.90;17.40;;;;;1.40;96475.80;;;;111068;1247;41143;-64
2022/02/02 02:19:48;;;;;;;41.60;18.00;;;;;1.40;96472.80;;;;111119;1246;42462;-61
2022/02/02 02:22:28;;;;;;;34.80;15.70;;;;;1.40;96473.00;;;;110833;1249;41206;-59
2022/02/02 02:24:58;;;;;;;37.20;16.00;;;;;1.40;96458.00;;;;110983;1248;41245;-61
2022/02/02 02:27:28;;;;;;;38.00;15.10;;;;;1.40;96457.60;;;;110956;1249;41130;-64
2022/02/02 02:30:07;;;;;;;41.70;14.10;;;;;1.40;96464.40;;;;110959;1247;41139;-63
2022/02/02 02:38:41;;;;;;;41.80;14.60;;;;;1.40;96455.20;;;;111062;1248;41153;-60
2022/02/02 02:58:33;;;;;;;41.50;16.70;;;;;1.20;96445.00;;;;111006;1248;41265;-59
2022/02/02 03:01:32;;;;;;;38.90;15.00;;;;;1.20;96455.80;;;;111033;1248;41565;-63
2022/02/02 03:29:54;;;;;;;24.40;9.80;;;;;1.10;96470.40;;;;111073;1249;41613;-62
2022/02/02 03:57:08;;;;;;;20.60;8.20;;;;;1.28;96457.00;;;;111068;1246;41260;-64
2022/02/02 04:02:47;;;;;;;28.50;10.00;;;;;1.30;96451.00;;;;110923;1249;42310;-65
2022/02/02 04:10:48;;;;;;;28.70;10.50;;;;;1.30;96451.40;;;;111102;1248;41157;-61
2022/02/02 05:19:44;;;;;;;32.60;11.20;;;;;1.10;96447.80;;;;111005;1249;41250;-61
2022/02/02 05:52:50;;;;;;;31.90;12.30;;;;;0.70;96453.60;;;;110533;1248;41831;-63
2022/02/02 05:55:20;;;;;;;28.40;11.70;;;;;0.70;96457.60;;;;111006;1247;41133;-64
2022/02/02 05:57:50;;;;;;;33.80;10.90;;;;;0.70;96464.20;;;;111006;1246;41896;-62
2022/02/02 06:00:19;;;;;;;31.70;12.30;;;;;0.70;96468.00;;;;111030;1247;41172;-61
2022/02/02 06:02:53;;;;;;;31.10;11.70;;;;;0.76;96468.00;;;;111066;1247;41936;-64
2022/02/02 06:05:27;;;;;;;31.80;11.50;;;;;0.74;96471.40;;;;111005;1248;41718;-62
2022/02/02 06:07:57;;;;;;;26.40;10.80;;;;;0.78;96469.20;;;;111064;1247;42071;-64
2022/02/02 06:10:26;;;;;;;28.30;11.30;;;;;0.80;96471.60;;;;111024;1248;41184;-64
2022/02/02 06:12:59;;;;;;;27.20;11.30;;;;;0.80;96467.60;;;;110885;1248;41142;-61
2022/02/02 06:15:28;;;;;;;32.10;11.80;;;;;0.80;96464.20;;;;110927;1249;41120;-63
2022/02/02 06:18:00;;;;;;;33.00;12.00;;;;;0.82;96473.00;;;;111151;1247;41317;-68
2022/02/02 06:20:31;;;;;;;27.80;12.60;;;;;0.80;96465.60;;;;111098;1246;41156;-63
2022/02/02 06:23:06;;;;;;;35.40;14.20;;;;;0.70;96470.60;;;;111087;1246;41190;-65
2022/02/02 06:25:37;;;;;;;30.90;13.20;;;;;0.70;96469.40;;;;110988;1247;41933;-60
2022/02/02 06:28:06;;;;;;;35.30;12.80;;;;;0.70;96471.00;;;;111056;1247;41388;-61
2022/02/02 06:30:35;;;;;;;29.50;13.60;;;;;0.70;96467.40;;;;111047;1247;41144;-61
2022/02/02 06:33:07;;;;;;;35.30;13.50;;;;;0.80;96471.00;;;;111080;1247;41143;-63
2022/02/02 06:35:36;;;;;;;41.50;15.00;;;;;0.82;96468.60;;;;111076;1247;41615;-63
2022/02/02 06:38:07;;;;;;;37.00;14.60;;;;;0.82;96461.20;;;;111076;1246;41155;-63
2022/02/02 06:40:37;;;;;;;37.70;15.90;;;;;0.80;96458.80;;;;111093;1246;41158;-63
2022/02/02 06:43:06;;;;;;;38.90;15.00;;;;;0.70;96455.60;;;;110995;1247;42263;-63
2022/02/02 06:45:36;;;;;;;32.80;14.10;;;;;0.80;96457.40;;;;111114;1246;41135;-61
2022/02/02 06:48:05;;;;;;;27.40;13.10;;;;;0.80;96460.40;;;;111098;1247;41406;-63
2022/02/02 06:50:39;;;;;;;29.80;12.90;;;;;0.70;96465.80;;;;111085;1248;41141;-61
2022/02/02 06:53:26;;;;;;;27.00;12.30;;;;;0.50;96472.80;;;;111065;1247;41188;-63
2022/02/02 06:56:29;;;;;;;26.80;12.40;;;;;0.60;96468.00;;;;111020;1248;41689;-60
2022/02/02 06:59:36;;;;;;;29.50;11.20;;;;;0.60;96461.40;;;;111091;1246;41272;-60
2022/02/02 07:02:36;;;;;;;27.00;11.10;;;;;0.60;96458.20;;;;111031;1248;42036;-66
2022/02/02 07:10:50;;;;;;;28.30;10.80;;;;;0.90;96462.40;;;;111047;1247;41518;-60
2022/02/02 07:13:30;;;;;;;26.10;9.90;;;;;1.10;96464.20;;;;111020;1249;41266;-61
2022/02/02 07:27:07;;;;;;;23.40;10.20;;;;;1.80;96440.00;;;;111091;1248;41136;-58
2022/02/02 07:29:55;;;;;;;27.00;10.60;;;;;1.98;96446.20;;;;111051;1247;41703;-60
2022/02/02 07:32:31;;;;;;;20.40;10.00;;;;;2.06;96446.00;;;;111051;1247;41153;-59
2022/02/02 07:35:10;;;;;;;24.30;10.20;;;;;2.12;96445.80;;;;111081;1246;42352;-61
2022/02/02 07:38:11;;;;;;;25.40;11.40;;;;;2.16;96442.00;;;;111131;1246;41597;-59
2022/02/02 07:40:45;;;;;;;23.90;10.10;;;;;2.06;96443.60;;;;111121;1247;41134;-62
2022/02/02 07:43:22;;;;;;;23.30;9.40;;;;;2.06;96445.00;;;;111041;1246;41608;-61
2022/02/02 07:46:01;;;;;;;28.80;11.60;;;;;2.20;96440.40;;;;111081;1247;41403;-60
2022/02/02 07:48:38;;;;;;;24.90;10.30;;;;;2.10;96434.20;;;;111036;1246;41611;-59
2022/02/02 07:51:10;;;;;;;25.10;11.00;;;;;1.94;96437.80;;;;111016;1248;41407;-59
2022/02/02 07:53:48;;;;;;;26.80;10.80;;;;;1.96;96434.20;;;;111129;1246;41635;-59
2022/02/02 07:56:34;;;;;;;24.50;10.10;;;;;2.06;96439.80;;;;110850;1249;42438;-64
2022/02/02 08:01:44;;;;;;;19.40;8.90;;;;;2.22;96447.00;;;;110981;1249;41291;-66
2022/02/02 08:04:21;;;;;;;18.40;8.20;;;;;1.94;96448.80;;;;111028;1247;40865;-64
2022/02/02 08:06:53;;;;;;;23.80;8.90;;;;;1.88;96443.20;;;;111071;1247;41154;-65
2022/02/02 08:09:37;;;;;;;25.20;10.30;;;;;1.68;96447.60;;;;111081;1246;41156;-65
2022/02/02 08:12:15;;;;;;;26.00;10.00;;;;;1.42;96452.60;;;;110999;1249;41411;-59
2022/02/02 08:14:48;;;;;;;23.50;9.50;;;;;1.20;96457.40;;;;111066;1246;41149;-64
2022/02/02 08:17:17;;;;;;;25.50;9.20;;;;;1.08;96456.80;;;;111080;1246;41143;-63
2022/02/02 08:19:46;;;;;;;23.70;9.40;;;;;1.00;96457.20;;;;111083;1248;41260;-64
2022/02/02 08:22:15;;;;;;;22.60;9.50;;;;;1.10;96456.00;;;;111063;1249;42768;-63
2022/02/02 08:24:45;;;;;;;18.70;9.10;;;;;1.08;96446.80;;;;111096;1247;41337;-67
2022/02/02 08:27:14;;;;;;;24.80;10.90;;;;;1.10;96445.00;;;;111124;1248;41146;-64
2022/02/02 08:29:43;;;;;;;26.20;10.30;;;;;1.06;96441.40;;;;111095;1247;41265;-61
2022/02/02 08:32:13;;;;;;;26.70;9.90;;;;;1.00;96440.00;;;;111074;1248;41721;-65
2022/02/02 08:34:45;;;;;;;21.80;9.60;;;;;1.10;96439.00;;;;110890;1249;41248;-61
2022/02/02 08:37:15;;;;;;;24.90;9.40;;;;;1.12;96433.60;;;;111127;1249;41255;-58
2022/02/02 08:40:07;;;;;;;22.50;9.10;;;;;1.20;96432.00;;;;111100;1246;41857;-63
2022/02/02 08:42:37;;;;;;;24.10;9.60;;;;;1.30;96440.00;;;;111113;1247;41615;-61
2022/02/02 08:47:52;;;;;;;19.50;8.80;;;;;1.00;96434.40;;;;111064;1246;41533;-65
2022/02/02 08:50:29;;;;;;;21.10;9.50;;;;;1.20;96433.40;;;;111031;1246;41599;-65
2022/02/02 08:53:08;;;;;;;29.80;9.90;;;;;1.32;96433.80;;;;111064;1247;41141;-63
2022/02/02 08:58:44;;;;;;;19.40;8.90;;;;;1.34;96437.20;;;;111098;1246;41790;-65
2022/02/02 09:01:21;;;;;;;24.40;9.30;;;;;1.50;96435.00;;;;111131;1248;41712;-63
2022/02/02 09:06:39;;;;;;;21.50;9.80;;;;;1.60;96442.80;;;;111091;1249;41347;-62
2022/02/02 09:25:42;;;;;;;20.30;8.60;;;;;1.50;96444.60;;;;111031;1249;41143;-60
2022/02/02 09:36:11;;;;;;;22.10;8.70;;;;;1.64;96429.20;;;;111044;1249;41571;-62
2022/02/02 09:38:40;;;;;;;19.10;8.80;;;;;1.70;96426.40;;;;111068;1249;41657;-62
2022/02/02 09:44:01;;;;;;;26.50;8.70;;;;;1.98;96423.00;;;;111065;1248;41267;-65
2022/02/02 09:46:56;;;;;;;20.60;8.00;;;;;2.00;96421.40;;;;111073;1247;41163;-63
2022/02/02 09:49:30;;;;;;;17.10;7.80;;;;;2.10;96419.00;;;;111071;1247;41173;-63
2022/02/02 09:52:09;;;;;;;20.70;7.90;;;;;2.20;96407.00;;;;110970;1246;41787;-62
2022/02/02 09:54:56;;;;;;;16.40;7.60;;;;;2.26;96404.60;;;;111088;1246;41492;-63
2022/02/02 10:00:43;;;;;;;16.90;7.50;;;;;2.64;96395.20;;;;111053;1246;42569;-58
2022/02/02 10:03:35;;;;;;;;;;;;;2.78;96381.40;;;;110821;1249;42364;-61
2022/02/02 10:06:16;;;;;;;19.60;8.10;;;;;2.90;96378.80;;;;111065;1246;41935;-63
2022/02/02 10:14:30;;;;;;;16.60;7.10;;;;;3.60;96361.00;;;;111055;1247;41152;-63
2022/02/02 10:17:04;;;;;;;20.00;8.20;;;;;3.88;96360.40;;;;111087;1246;41203;-61
2022/02/02 10:19:36;;;;;;;19.50;7.70;;;;;3.82;96355.80;;;;111009;1246;41609;-66
2022/02/02 10:22:27;;;;;;;17.90;7.50;;;;;3.36;96356.40;;;;110997;1247;42034;-61
2022/02/02 10:25:00;;;;;;;20.50;8.80;;;;;3.50;96353.20;;;;110960;1249;41729;-65
2022/02/02 10:27:35;;;;;;;20.90;8.20;;;;;3.20;96353.60;;;;111037;1246;41157;-64
2022/02/02 10:30:22;;;;;;;19.80;8.20;;;;;3.40;96351.40;;;;111069;1248;41177;-68
2022/02/02 10:32:51;;;;;;;17.10;7.30;;;;;3.46;96349.00;;;;111061;1246;41710;-67
2022/02/02 10:35:33;;;;;;;15.50;7.00;;;;;3.54;96339.80;;;;111064;1247;41272;-64
2022/02/02 10:38:25;;;;;;;22.40;7.70;;;;;3.40;96337.60;;;;111045;1247;41379;-64
2022/02/02 10:43:54;;;;;;;16.80;7.40;;;;;3.34;96343.60;;;;111065;1249;41177;-59
2022/02/02 10:46:41;;;;;;;15.90;7.10;;;;;3.08;96331.80;;;;111033;1249;41141;-62
2022/02/02 10:49:28;;;;;;;19.10;7.90;;;;;3.24;96341.60;;;;111029;1246;41260;-60
2022/02/02 10:52:27;;;;;;;18.20;8.10;;;;;3.00;96341.40;;;;110914;1249;41156;-60
2022/02/02 11:01:31;;;;;;;13.50;6.50;;;;;2.88;96350.20;;;;110978;1249;41137;-61
2022/02/02 11:06:47;;;;;;;19.60;8.00;;;;;2.90;96340.20;;;;110867;1250;41343;-59
2022/02/02 11:09:18;;;;;;;18.60;8.40;;;;;2.90;96338.60;;;;110810;1249;41265;-64
2022/02/02 11:11:48;;;;;;;;;;;;;3.00;96340.40;;;;110946;1250;41146;-64
2022/02/02 11:14:26;;;;;;;15.30;6.90;;;;;2.98;96339.20;;;;110711;1249;41172;-64
2022/02/02 11:17:06;;;;;;;21.80;7.30;;;;;2.94;96334.40;;;;110973;1249;41485;-65
2022/02/02 11:19:38;;;;;;;15.60;6.40;;;;;2.96;96335.00;;;;110845;1250;41878;-62
2022/02/02 11:22:37;;;;;;;18.00;7.50;;;;;3.00;96331.00;;;;110885;1250;41215;-60
2022/02/02 11:25:09;;;;;;;23.90;8.10;;;;;3.10;96339.60;;;;110734;1249;41270;-60
2022/02/02 11:27:44;;;;;;;16.50;7.00;;;;;3.04;96338.80;;;;111028;1249;41257;-59
2022/02/02 11:30:25;;;;;;;19.30;7.40;;;;;2.96;96330.80;;;;111024;1249;41622;-64
2022/02/02 11:32:54;;;;;;;16.40;6.80;;;;;3.00;96332.80;;;;110971;1249;41258;-62
2022/02/02 11:35:45;;;;;;;20.20;7.10;;;;;3.00;96330.00;;;;110783;1249;41713;-64
2022/02/02 11:38:33;;;;;;;15.40;6.50;;;;;3.00;96328.20;;;;110971;1249;41335;-64
2022/02/02 11:41:06;;;;;;;19.00;6.80;;;;;3.14;96341.60;;;;111070;1249;41174;-63
2022/02/02 11:44:00;;;;;;;16.30;6.50;;;;;3.10;96337.60;;;;111111;1249;41446;-60
2022/02/02 11:49:32;;;;;;;20.00;6.50;;;;;3.30;96331.80;;;;111057;1247;41177;-64
2022/02/02 11:52:03;;;;;;;16.10;6.30;;;;;3.30;96325.00;;;;110716;1249;41273;-63
2022/02/02 11:54:32;;;;;;;16.40;6.90;;;;;3.40;96326.60;;;;111061;1249;41878;-64
2022/02/02 11:57:03;;;;;;;19.40;6.90;;;;;3.36;96331.20;;;;111103;1246;41149;-63
2022/02/02 12:00:09;;;;;;;16.80;6.80;;;;;3.34;96330.00;;;;111039;1247;41156;-61
2022/02/02 12:58:07;;;;;;;13.90;6.60;;;;;3.40;96336.60;;;;111075;1247;41162;-62
2022/02/02 13:03:08;;;;;;;15.60;6.30;;;;;3.20;96337.80;;;;110937;1249;41680;-62
2022/02/02 13:05:40;;;;;;;15.10;6.10;;;;;3.20;96334.80;;;;110939;1249;41600;-61
2022/02/02 13:08:09;;;;;;;14.20;6.70;;;;;3.24;96338.20;;;;111092;1246;41322;-62
2022/02/02 13:10:38;;;;;;;14.70;5.60;;;;;3.22;96339.60;;;;111055;1246;41153;-64
2022/02/02 13:13:20;;;;;;;13.10;5.70;;;;;3.20;96350.40;;;;111010;1247;41398;-63
2022/02/02 13:16:06;;;;;;;12.10;5.30;;;;;3.26;96357.20;;;;111057;1246;41760;-61
2022/02/02 13:21:18;;;;;;;15.70;6.00;;;;;3.20;96356.60;;;;111073;1247;41316;-64
2022/02/02 13:26:32;;;;;;;13.50;5.60;;;;;3.00;96353.80;;;;111049;1249;41150;-62
2022/02/02 13:37:37;;;;;;;15.50;6.00;;;;;2.70;96366.80;;;;111004;1248;41254;-62
2022/02/02 13:43:36;;;;;;;14.10;5.40;;;;;2.80;96370.00;;;;111074;1249;41188;-66
2022/02/02 13:46:37;;;;;;;13.80;6.00;;;;;2.80;96366.80;;;;111167;1249;41252;-59
2022/02/02 13:52:23;;;;;;;14.70;5.80;;;;;2.74;96374.00;;;;111103;1248;41263;-63
2022/02/02 13:55:35;;;;;;;13.00;5.30;;;;;2.70;96378.40;;;;111085;1248;40838;-65
2022/02/02 14:33:53;;;;;;;12.50;5.30;;;;;2.90;96374.20;;;;110842;1249;41141;-64
2022/02/02 14:36:27;;;;;;;14.80;5.30;;;;;2.94;96375.40;;;;110871;1250;41359;-65
2022/02/02 14:39:09;;;;;;;17.10;6.20;;;;;3.00;96382.60;;;;111115;1249;41921;-62
2022/02/02 14:42:10;;;;;;;13.80;5.30;;;;;2.90;96387.80;;;;111118;1248;42555;-63
2022/02/02 14:44:37;;;;;;;13.20;5.20;;;;;2.98;96385.60;;;;111186;1247;41947;-62
2022/02/02 14:47:31;;;;;;;11.60;5.10;;;;;3.00;96392.40;;;;110965;1249;41140;-64
2022/02/02 14:50:31;;;;;;;12.20;4.50;;;;;3.08;96400.00;;;;110802;1250;41623;-61
2022/02/02 14:53:08;;;;;;;11.30;4.10;;;;;3.10;96401.40;;;;111064;1249;41786;-62
2022/02/02 14:56:07;;;;;;;14.40;5.40;;;;;3.18;96404.00;;;;110663;1251;41152;-60
2022/02/02 15:27:13;;;;;;;27.10;10.60;;;;;3.50;96424.00;;;;110832;1249;41616;-63
2022/02/02 15:29:15;;;;;;;25.90;10.60;;;;;3.50;96421.20;;;;111058;1248;41256;-59
2022/02/02 15:31:48;;;;;;;25.50;10.80;;;;;3.50;96434.20;;;;110737;1251;41141;-65
2022/02/02 15:34:46;;;;;;;27.80;11.90;;;;;3.50;96430.60;;;;111038;1248;41191;-62
2022/02/02 15:40:12;;;;;;;29.10;12.30;;;;;3.50;96427.20;;;;110841;1249;41176;-65
2022/02/02 15:43:09;;;;;;;29.20;13.30;;;;;3.50;96428.80;;;;111074;1249;41156;-63
2022/02/02 16:00:03;;;;;;;25.50;10.40;;;;;3.40;96435.80;;;;111097;1248;41130;-62
2022/02/02 16:02:20;;;;;;;27.10;11.90;;;;;3.40;96440.40;;;;111023;1248;41209;-62
2022/02/02 16:04:50;;;;;;;32.70;13.00;;;;;3.40;96442.20;;;;110989;1250;41946;-63
2022/02/02 16:07:25;;;;;;;29.70;14.50;;;;;3.40;96450.60;;;;111084;1248;41136;-64
2022/02/02 16:09:58;;;;;;;29.90;13.90;;;;;3.40;96454.00;;;;111114;1248;41151;-60
2022/02/02 16:12:32;;;;;;;28.60;13.90;;;;;3.40;96456.40;;;;111113;1248;41147;-63
2022/02/02 16:18:08;;;;;;;38.50;17.60;;;;;3.40;96453.60;;;;111036;1248;41949;-62
2022/02/02 16:32:00;;;;;;;57.20;25.90;;;;;3.30;96464.40;;;;111004;1248;41726;-64
2022/02/02 16:37:12;;;;;;;27.20;14.40;;;;;3.30;96470.20;;;;111087;1247;41623;-62
2022/02/02 16:39:52;;;;;;;21.50;9.60;;;;;3.22;96471.40;;;;110994;1250;41159;-63
2022/02/02 16:45:13;;;;;;;22.00;10.20;;;;;3.06;96465.80;;;;110960;1249;41808;-65
2022/02/02 16:47:42;;;;;;;21.80;10.80;;;;;2.90;96464.40;;;;110915;1249;41497;-64
2022/02/02 16:50:23;;;;;;;22.80;9.50;;;;;2.90;96472.00;;;;110850;1250;41161;-61
2022/02/02 16:52:56;;;;;;;20.50;9.60;;;;;2.88;96483.20;;;;111022;1249;42372;-65
2022/02/02 17:29:44;;;;;;;15.80;7.50;;;;;2.80;96503.20;;;;111069;1248;41285;-64
2022/02/02 17:37:08;;;;;;;14.20;6.20;;;;;2.80;96515.60;;;;110926;1248;41984;-62
2022/02/02 17:39:47;;;;;;;14.30;6.40;;;;;2.80;96506.40;;;;110909;1249;41203;-60
2022/02/02 17:42:41;;;;;;;13.00;6.30;;;;;2.80;96505.40;;;;110951;1250;41585;-59
2022/02/02 18:20:46;;;;;;;11.30;5.10;;;;;2.40;96520.40;;;;110737;1249;41133;-63
2022/02/02 18:23:39;;;;;;;12.20;5.00;;;;;2.40;96522.80;;;;110936;1247;41121;-58
2022/02/02 18:26:16;;;;;;;13.50;5.30;;;;;2.40;96523.60;;;;110871;1249;41170;-63
2022/02/02 18:29:00;;;;;;;12.80;5.10;;;;;2.40;96524.80;;;;110939;1248;41155;-63
2022/02/02 18:31:48;;;;;;;12.70;4.90;;;;;2.40;96525.20;;;;111026;1247;41599;-64
2022/02/02 18:37:18;;;;;;;11.10;4.70;;;;;2.40;96524.80;;;;111036;1247;41148;-60
2022/02/02 18:45:37;;;;;;;12.60;5.20;;;;;2.40;96534.40;;;;110985;1248;41590;-61
2022/02/02 18:48:35;;;;;;;12.30;5.30;;;;;2.42;96538.80;;;;111086;1246;41153;-64
2022/02/02 18:54:18;;;;;;;11.70;4.80;;;;;2.50;96555.60;;;;111000;1248;41140;-60
2022/02/02 19:07:14;;;;;;;12.80;4.70;;;;;2.62;96571.60;;;;110884;1250;41246;-66
2022/02/02 19:37:43;;;;;;;12.00;5.10;;;;;2.60;96602.60;;;;111023;1247;41125;-61
2022/02/02 19:40:38;;;;;;;13.60;5.60;;;;;2.60;96606.40;;;;110820;1249;42378;-62
2022/02/02 20:01:42;;;;;;;21.30;8.60;;;;;2.70;96601.00;;;;110774;1248;41224;-62
2022/02/02 20:03:39;;;;;;;21.20;10.10;;;;;2.70;96602.00;;;;111057;1248;42517;-61
2022/02/02 20:11:06;;;;;;;45.40;22.60;;;;;2.70;96610.20;;;;110922;1249;41437;-65
2022/02/02 20:13:38;;;;;;;50.60;23.80;;;;;2.70;96610.00;;;;110860;1249;41127;-64
2022/02/02 20:16:07;;;;;;;42.40;20.20;;;;;2.70;96617.00;;;;110824;1247;41134;-63
2022/02/02 20:18:41;;;;;;;35.00;15.00;;;;;2.70;96615.40;;;;110810;1248;41165;-63
2022/02/02 20:21:12;;;;;;;32.60;15.60;;;;;2.70;96612.60;;;;111000;1247;42473;-65
2022/02/02 20:23:46;;;;;;;34.60;16.80;;;;;2.60;96623.00;;;;111001;1247;41242;-65
2022/02/02 20:26:20;;;;;;;33.80;15.30;;;;;2.60;96628.60;;;;111057;1247;41854;-63
2022/02/02 20:28:49;;;;;;;28.90;14.10;;;;;2.60;96624.20;;;;110647;1250;41251;-64
2022/02/02 20:31:19;;;;;;;34.50;14.60;;;;;2.60;96630.60;;;;110620;1251;41169;-65
2022/02/02 20:33:48;;;;;;;30.90;14.20;;;;;2.60;96634.00;;;;110929;1250;41941;-61
2022/02/02 20:36:17;;;;;;;26.80;13.10;;;;;2.60;96634.00;;;;110720;1251;42506;-63
2022/02/02 20:38:46;;;;;;;31.60;13.50;;;;;2.52;96636.40;;;;110856;1248;42378;-64
2022/02/02 20:41:16;;;;;;;31.00;15.50;;;;;2.50;96639.00;;;;110953;1249;41253;-65
2022/02/02 20:43:55;;;;;;;36.90;17.20;;;;;2.50;96636.40;;;;110857;1249;41909;-64
2022/02/02 21:00:35;;;;;;;46.90;24.50;;;;;2.40;96650.20;;;;110641;1249;41808;-65
2022/02/02 21:05:50;;;;;;;35.90;18.60;;;;;2.30;96664.40;;;;110900;1250;41260;-60
2022/02/02 21:08:43;;;;;;;34.20;16.00;;;;;2.30;96671.00;;;;111037;1248;41609;-66
2022/02/02 21:11:22;;;;;;;36.90;17.60;;;;;2.30;96677.00;;;;111001;1248;41619;-64
2022/02/02 21:13:54;;;;;;;38.10;18.30;;;;;2.26;96676.20;;;;110960;1249;41153;-61
2022/02/02 21:16:28;;;;;;;31.30;15.20;;;;;2.28;96675.00;;;;110844;1248;42218;-62
2022/02/02 21:19:00;;;;;;;31.90;14.10;;;;;2.20;96673.00;;;;111039;1248;41166;-63
2022/02/02 21:21:49;;;;;;;29.20;13.90;;;;;2.20;96678.20;;;;111070;1247;41305;-65
2022/02/02 21:27:20;;;;;;;20.60;10.80;;;;;2.20;96677.00;;;;111001;1247;41151;-63
2022/02/02 21:29:43;;;;;;;20.50;9.90;;;;;2.20;96686.20;;;;111129;1247;41276;-65
2022/02/02 21:32:12;;;;;;;20.10;9.60;;;;;2.18;96695.60;;;;111073;1247;41140;-65
2022/02/02 21:34:41;;;;;;;25.40;10.60;;;;;2.12;96699.60;;;;111053;1248;41524;-64
2022/02/02 21:37:10;;;;;;;19.90;10.00;;;;;2.10;96705.40;;;;111075;1247;41629;-64
2022/02/02 21:39:51;;;;;;;22.70;10.40;;;;;2.10;96713.80;;;;111088;1247;41125;-63
2022/02/02 21:42:20;;;;;;;;;;;;;2.10;96723.40;;;;111062;1246;41305;-65
2022/02/02 21:44:49;;;;;;;20.60;9.70;;;;;2.10;96729.20;;;;111099;1247;41178;-65
2022/02/02 21:47:18;;;;;;;20.60;9.80;;;;;2.10;96734.00;;;;111050;1248;41150;-61
2022/02/02 21:49:53;;;;;;;27.80;13.10;;;;;2.10;96747.20;;;;111016;1247;41145;-62
2022/02/02 21:52:23;;;;;;;44.10;21.50;;;;;2.10;96752.40;;;;110899;1250;41162;-64
2022/02/02 21:54:52;;;;;;;49.30;22.40;;;;;1.90;96754.60;;;;111112;1248;41189;-64
2022/02/02 21:57:21;;;;;;;48.30;21.90;;;;;1.90;96758.60;;;;111088;1247;41251;-62
2022/02/02 21:59:50;;;;;;;41.90;21.10;;;;;1.84;96755.60;;;;111063;1248;41150;-63
2022/02/02 22:02:19;;;;;;;49.00;22.80;;;;;1.88;96761.00;;;;111045;1249;41155;-63
2022/02/02 22:04:48;;;;;;;51.20;23.60;;;;;1.78;96768.80;;;;111071;1248;41556;-63
2022/02/02 22:07:18;;;;;;;45.70;22.80;;;;;1.70;96773.00;;;;110871;1248;41203;-60
2022/02/02 22:09:49;;;;;;;49.80;22.90;;;;;1.70;96776.20;;;;111065;1249;41223;-64
2022/02/02 22:12:18;;;;;;;45.60;22.40;;;;;1.70;96781.60;;;;111081;1247;41317;-59
2022/02/02 22:14:50;;;;;;;44.50;21.40;;;;;1.70;96786.00;;;;111087;1248;41450;-63
2022/02/02 22:17:22;;;;;;;51.10;25.10;;;;;1.62;96786.80;;;;111093;1248;41367;-62
2022/02/02 22:19:55;;;;;;;50.70;23.50;;;;;1.60;96783.20;;;;111067;1249;41179;-63
2022/02/02 22:22:27;;;;;;;52.00;24.40;;;;;1.60;96784.40;;;;111049;1247;42826;-64
2022/02/02 22:24:56;;;;;;;47.00;22.80;;;;;1.54;96790.00;;;;111112;1247;41137;-61
2022/02/02 22:27:25;;;;;;;51.20;24.20;;;;;1.60;96792.40;;;;110988;1248;42164;-62
2022/02/02 22:29:54;;;;;;;47.00;23.20;;;;;1.54;96804.20;;;;111049;1247;41279;-60
2022/02/02 22:32:23;;;;;;;49.70;24.70;;;;;1.50;96800.60;;;;111072;1248;42029;-60
2022/02/02 22:34:53;;;;;;;46.40;22.60;;;;;1.50;96801.20;;;;111026;1247;41263;-62
2022/02/02 22:37:22;;;;;;;55.80;24.70;;;;;1.50;96801.60;;;;111058;1248;41263;-59
2022/02/02 22:39:52;;;;;;;47.70;23.20;;;;;1.50;96803.00;;;;111027;1249;41733;-58
2022/02/02 22:42:24;;;;;;;48.40;22.90;;;;;1.50;96806.20;;;;110998;1250;41276;-63
2022/02/02 22:44:55;;;;;;;;;;;;;1.56;96811.00;;;;111013;1246;41682;-58
2022/02/02 22:47:27;;;;;;;50.40;22.90;;;;;1.56;96820.00;;;;111114;1247;41146;-60
2022/02/02 22:49:58;;;;;;;49.80;23.70;;;;;1.60;96816.00;;;;111101;1248;41268;-61
2022/02/02 22:52:27;;;;;;;44.00;22.30;;;;;1.50;96813.80;;;;111018;1247;41651;-62
2022/02/02 22:54:57;;;;;;;47.20;23.30;;;;;1.50;96807.20;;;;111089;1247;42254;-62
2022/02/02 22:57:26;;;;;;;45.50;20.80;;;;;1.50;96805.40;;;;111084;1247;41145;-64
2022/02/02 22:59:56;;;;;;;47.60;22.30;;;;;1.50;96800.20;;;;111105;1247;41280;-60
2022/02/02 23:04:55;;;;;;;45.40;21.50;;;;;1.50;96803.60;;;;111106;1248;41328;-64
2022/02/02 23:07:24;;;;;;;44.90;20.70;;;;;1.50;96809.20;;;;110825;1249;41147;-63
2022/02/02 23:09:53;;;;;;;48.20;22.60;;;;;1.50;96809.80;;;;111040;1247;41158;-61
2022/02/02 23:12:25;;;;;;;52.20;23.40;;;;;1.52;96812.20;;;;111062;1247;41470;-64
2022/02/02 23:14:57;;;;;;;42.20;21.30;;;;;1.50;96820.20;;;;111075;1248;41237;-67
2022/02/02 23:17:28;;;;;;;43.50;20.50;;;;;1.50;96826.00;;;;111199;1247;41142;-64
2022/02/02 23:19:58;;;;;;;44.00;20.50;;;;;1.50;96817.00;;;;111166;1247;43301;-63
2022/02/02 23:22:30;;;;;;;43.60;20.70;;;;;1.50;96818.40;;;;111060;1247;41150;-59